createdAt,value
2019-05-13T00:02:08.892Z,91.11
2019-05-13T00:04:39.505Z,90.85
2019-05-13T00:07:10.676Z,90.89
2019-05-13T00:09:44.112Z,91.09
2019-05-13T00:12:13.829Z,91.17
2019-05-13T00:14:44.717Z,91.47
2019-05-13T00:17:15.333Z,91.96
2019-05-13T00:19:45.895Z,92.42
2019-05-13T00:22:16.928Z,92.53
2019-05-13T00:24:47.540Z,92.92
2019-05-13T00:27:18.245Z,93.17
2019-05-13T00:29:48.840Z,93.30
2019-05-13T00:32:19.451Z,93.31
2019-05-13T00:34:50.593Z,93.09
2019-05-13T00:37:21.205Z,92.72
2019-05-13T00:39:54.195Z,92.59
2019-05-13T00:42:24.698Z,92.77
2019-05-13T00:44:55.438Z,92.95
2019-05-13T00:47:25.972Z,92.40
2019-05-13T00:49:56.569Z,92.14
2019-05-13T00:52:27.278Z,91.77
2019-05-13T00:54:58.059Z,91.96
2019-05-13T00:57:28.653Z,92.00
2019-05-13T00:59:59.295Z,91.91
2019-05-13T01:02:29.909Z,91.81
2019-05-13T01:05:00.643Z,91.96
2019-05-13T01:07:33.992Z,92.01
2019-05-13T01:10:04.346Z,91.89
2019-05-13T01:12:35.032Z,92.15
2019-05-13T01:15:07.347Z,92.24
2019-05-13T01:17:38.035Z,91.89
2019-05-13T01:20:09.029Z,90.27
2019-05-13T01:22:40.157Z,90.08
2019-05-13T01:25:11.129Z,89.81
2019-05-13T01:27:44.192Z,89.80
2019-05-13T01:30:14.731Z,89.81
2019-05-13T01:32:45.348Z,89.58
2019-05-13T01:35:15.959Z,89.77
2019-05-13T01:37:46.650Z,89.77
2019-05-13T01:40:17.255Z,89.88
2019-05-13T01:42:47.996Z,90.30
2019-05-13T01:45:18.720Z,90.49
2019-05-13T01:47:49.572Z,90.37
2019-05-13T01:50:20.210Z,90.67
2019-05-13T01:52:53.240Z,91.02
2019-05-13T01:55:24.425Z,90.88
2019-05-13T01:57:55.518Z,91.07
2019-05-13T02:00:26.441Z,91.19
2019-05-13T02:02:57.381Z,91.22
2019-05-13T02:05:29.477Z,91.37
2019-05-13T02:08:00.872Z,91.09
2019-05-13T02:10:54.375Z,90.45
2019-05-13T02:13:25.333Z,90.51
2019-05-13T02:15:56.629Z,90.82
2019-05-13T02:18:27.240Z,91.10
2019-05-13T02:20:58.524Z,91.11
2019-05-13T02:23:29.837Z,91.43
2019-05-13T02:26:00.757Z,91.84
2019-05-13T02:28:33.387Z,92.06
2019-05-13T02:31:03.776Z,92.27
2019-05-13T02:33:35.023Z,92.36
2019-05-13T02:36:06.044Z,92.33
2019-05-13T02:38:36.698Z,92.35
2019-05-13T02:41:07.439Z,92.31
2019-05-13T02:43:41.338Z,92.42
2019-05-13T02:46:12.871Z,92.03
2019-05-13T02:48:42.906Z,91.91
2019-05-13T02:51:13.648Z,91.83
2019-05-13T02:53:44.791Z,91.83
2019-05-13T02:56:15.519Z,91.26
2019-05-13T02:58:46.062Z,90.71
2019-05-13T03:01:16.706Z,90.51
2019-05-13T03:03:47.399Z,89.67
2019-05-13T03:06:18.021Z,88.75
2019-05-13T03:08:53.248Z,87.35
2019-05-13T03:11:22.753Z,86.59
2019-05-13T03:13:54.871Z,85.55
2019-05-13T03:16:27.131Z,84.26
2019-05-13T03:18:57.756Z,83.75
2019-05-13T03:21:32.444Z,83.02
2019-05-13T03:24:03.464Z,83.09
2019-05-13T03:26:34.645Z,81.23
2019-05-13T03:29:06.743Z,81.56
2019-05-13T03:31:37.466Z,79.91
2019-05-13T03:34:08.344Z,81.10
2019-05-13T03:36:44.915Z,80.78
2019-05-13T03:39:15.905Z,81.50
2019-05-13T03:41:46.563Z,81.48
2019-05-13T03:44:19.068Z,81.79
2019-05-13T03:46:52.883Z,81.48
2019-05-13T03:49:26.751Z,80.25
2019-05-13T03:51:57.939Z,81.03
2019-05-13T03:54:32.921Z,81.29
2019-05-13T03:57:04.208Z,79.96
2019-05-13T03:59:35.110Z,79.34
2019-05-13T04:02:05.732Z,78.84
2019-05-13T04:04:36.252Z,78.52
2019-05-13T04:07:06.965Z,77.02
2019-05-13T04:09:37.665Z,76.87
2019-05-13T04:12:08.275Z,76.61
2019-05-13T04:14:42.149Z,76.33
2019-05-13T04:17:12.629Z,76.81
2019-05-13T04:19:43.813Z,73.71
2019-05-13T04:22:16.012Z,69.08
2019-05-13T04:24:46.614Z,65.55
2019-05-13T04:27:17.353Z,63.70
2019-05-13T04:29:48.485Z,61.79
2019-05-13T04:32:19.069Z,62.81
2019-05-13T04:34:52.842Z,61.59
2019-05-13T04:37:22.740Z,58.21
2019-05-13T04:39:56.282Z,54.15
2019-05-13T04:42:25.853Z,53.38
2019-05-13T04:44:56.585Z,52.86
2019-05-13T04:47:27.336Z,49.32
2019-05-13T04:49:58.758Z,50.05
2019-05-13T04:52:33.049Z,53.26
2019-05-13T04:55:03.522Z,49.04
2019-05-13T04:57:34.338Z,49.46
2019-05-13T05:00:07.700Z,50.44
2019-05-13T05:02:58.255Z,46.67
2019-05-13T05:05:52.740Z,48.11
2019-05-13T05:08:28.318Z,47.02
2019-05-13T05:11:33.889Z,47.69
2019-05-13T05:14:22.241Z,51.54
2019-05-13T05:17:16.733Z,50.68
2019-05-13T05:19:55.546Z,54.12
2019-05-13T05:22:48.768Z,50.19
2019-05-13T05:25:25.185Z,50.93
2019-05-13T05:28:21.763Z,50.05
2019-05-13T05:31:28.267Z,55.25
2019-05-13T05:34:14.010Z,61.65
2019-05-13T05:37:02.757Z,58.36
2019-05-13T05:39:33.397Z,61.38
2019-05-13T05:42:05.915Z,61.94
2019-05-13T05:44:42.196Z,62.21
2019-05-13T05:47:21.203Z,61.93
2019-05-13T05:49:56.150Z,62.49
2019-05-13T05:52:32.615Z,64.57
2019-05-13T05:55:03.956Z,64.34
2019-05-13T05:57:42.336Z,66.21
2019-05-13T06:00:17.230Z,65.76
2019-05-13T06:03:21.925Z,65.91
2019-05-13T06:05:57.300Z,62.52
2019-05-13T06:08:32.297Z,60.69
2019-05-13T06:11:04.561Z,60.36
2019-05-13T06:13:36.775Z,58.14
2019-05-13T06:16:09.165Z,58.14
2019-05-13T06:18:41.533Z,60.77
2019-05-13T06:21:12.373Z,59.07
2019-05-13T06:23:44.697Z,58.61
2019-05-13T06:26:17.144Z,56.14
2019-05-13T06:28:48.040Z,59.47
2019-05-13T06:31:24.301Z,56.96
2019-05-13T06:33:55.124Z,62.56
2019-05-13T06:36:26.715Z,63.14
2019-05-13T06:39:02.227Z,59.67
2019-05-13T06:41:32.557Z,57.75
2019-05-13T06:44:05.115Z,59.76
2019-05-13T06:46:36.251Z,59.79
2019-05-13T06:49:06.868Z,57.77
2019-05-13T06:51:37.516Z,57.24
2019-05-13T06:54:08.139Z,53.50
2019-05-13T06:56:38.781Z,60.25
2019-05-13T06:59:11.710Z,60.15
2019-05-13T07:01:42.448Z,60.68
2019-05-13T07:04:13.268Z,60.83
2019-05-13T07:06:43.875Z,59.49
2019-05-13T07:09:14.493Z,57.44
2019-05-13T07:11:45.245Z,58.55
2019-05-13T07:14:16.071Z,60.79
2019-05-13T07:16:46.881Z,58.65
2019-05-13T07:19:17.510Z,58.16
2019-05-13T07:21:48.128Z,57.16
2019-05-13T07:24:21.257Z,56.88
2019-05-13T07:26:52.358Z,58.74
2019-05-13T07:29:24.281Z,58.01
2019-05-13T07:31:55.022Z,52.32
2019-05-13T07:34:25.687Z,52.45
2019-05-13T07:36:56.426Z,52.87
2019-05-13T07:39:27.067Z,49.10
2019-05-13T07:41:57.897Z,48.16
2019-05-13T07:44:28.520Z,55.71
2019-05-13T07:46:59.179Z,50.56
2019-05-13T07:49:31.551Z,50.50
2019-05-13T07:52:02.730Z,50.69
2019-05-13T07:54:33.426Z,46.44
2019-05-13T07:57:04.031Z,46.30
2019-05-13T07:59:36.215Z,46.50
2019-05-13T08:02:06.852Z,48.40
2019-05-13T08:04:42.085Z,49.35
2019-05-13T08:07:12.998Z,47.96
2019-05-13T08:09:43.686Z,45.63
2019-05-13T08:12:14.835Z,45.61
2019-05-13T08:14:45.588Z,45.20
2019-05-13T08:17:16.238Z,48.85
2019-05-13T08:19:46.942Z,48.56
2019-05-13T08:22:17.622Z,48.69
2019-05-13T08:24:52.031Z,48.43
2019-05-13T08:27:30.421Z,48.73
2019-05-13T08:29:54.084Z,50.31
2019-05-13T08:32:25.266Z,47.87
2019-05-13T08:35:01.724Z,46.48
2019-05-13T08:37:28.266Z,45.76
2019-05-13T08:40:01.355Z,45.76
2019-05-13T08:42:32.291Z,45.18
2019-05-13T08:45:03.091Z,47.17
2019-05-13T08:47:33.710Z,45.90
2019-05-13T08:50:05.162Z,46.77
2019-05-13T08:52:35.739Z,44.67
2019-05-13T08:55:07.952Z,45.34
2019-05-13T08:57:38.578Z,45.84
2019-05-13T09:00:09.402Z,46.86
2019-05-13T09:02:42.019Z,46.77
2019-05-13T09:05:13.935Z,46.63
2019-05-13T09:07:44.788Z,45.27
2019-05-13T09:10:15.906Z,44.39
2019-05-13T09:12:48.857Z,42.71
2019-05-13T09:15:22.297Z,44.24
2019-05-13T09:17:51.832Z,43.64
2019-05-13T09:20:22.405Z,43.46
2019-05-13T09:22:53.026Z,44.09
2019-05-13T09:25:23.787Z,42.34
2019-05-13T09:27:54.377Z,42.25
2019-05-13T09:30:27.281Z,42.15
2019-05-13T09:32:57.359Z,42.25
2019-05-13T09:35:28.113Z,40.82
2019-05-13T09:37:58.823Z,39.96
2019-05-13T09:40:31.430Z,40.49
2019-05-13T09:43:02.648Z,40.21
2019-05-13T09:45:33.774Z,42.23
2019-05-13T09:48:04.674Z,41.54
2019-05-13T09:50:37.000Z,41.38
2019-05-13T09:53:07.653Z,41.48
2019-05-13T09:55:38.366Z,41.71
2019-05-13T09:58:11.675Z,42.59
2019-05-13T10:00:42.646Z,41.92
2019-05-13T10:03:14.149Z,43.74
2019-05-13T10:05:45.039Z,44.20
2019-05-13T10:08:15.698Z,42.28
2019-05-13T10:10:46.412Z,41.33
2019-05-13T10:13:17.263Z,41.82
2019-05-13T10:15:48.860Z,41.41
2019-05-13T10:18:21.890Z,42.23
2019-05-13T10:20:58.251Z,43.04
2019-05-13T10:23:28.275Z,43.36
2019-05-13T10:26:04.648Z,42.40
2019-05-13T10:28:35.669Z,42.54
2019-05-13T10:31:06.833Z,43.34
2019-05-13T10:33:37.787Z,43.54
2019-05-13T10:36:08.457Z,45.65
2019-05-13T10:38:41.314Z,48.09
2019-05-13T10:41:12.047Z,54.54
2019-05-13T10:55:24.647Z,69.19
2019-05-13T10:57:55.277Z,68.63
2019-05-13T11:00:37.095Z,67.62
2019-05-13T11:03:07.700Z,68.46
2019-05-13T11:05:42.102Z,66.82
2019-05-13T11:08:11.242Z,65.41
2019-05-13T11:10:42.238Z,62.17
2019-05-13T11:13:13.863Z,63.19
2019-05-13T11:15:45.323Z,60.85
2019-05-13T11:18:19.452Z,58.90
2019-05-13T11:20:49.420Z,59.17
2019-05-13T11:23:22.956Z,57.06
2019-05-13T11:25:52.596Z,55.70
2019-05-13T11:28:23.341Z,55.89
2019-05-13T11:30:59.338Z,53.95
2019-05-13T11:35:31.985Z,52.19
2019-05-13T11:38:02.720Z,54.47
2019-05-13T11:40:33.374Z,50.37
2019-05-13T11:43:04.023Z,49.96
2019-05-13T11:45:34.738Z,47.35
2019-05-13T11:48:05.570Z,46.42
2019-05-13T11:50:36.561Z,47.79
2019-05-13T11:53:30.164Z,47.53
2019-05-13T11:55:42.509Z,46.62
2019-05-13T11:58:14.159Z,46.03
2019-05-13T12:00:53.214Z,44.86
2019-05-13T12:03:23.402Z,45.65
2019-05-13T12:05:55.190Z,46.04
2019-05-13T12:08:27.229Z,46.59
2019-05-13T12:10:57.989Z,45.96
2019-05-13T12:13:28.814Z,49.93
2019-05-13T12:16:03.271Z,47.67
